Aérodrome :
LOGIN :

S'inscrire | Disclaimer

   EN    FR    IT 

 










Légende :    VFR   VFR Marginal   IFR   IFR Intensif   IFR Très Intensif
Visi : 
Plafond : 
>= 8 km
>= 3000ft
5 à 8 km
1000 à 3000 ft
1500m à 5 km
500 à 1000 ft
800 à 1500m
200 à 500 ft
< 800m
< 200 ft
Symboles :   Orages  Brouillard  Fortes neiges  Fortes précipitations  Vent > 20 kt
SIGMETs :   Divers  Orages  Givrage  Turbulence  Onde Orograph.  Cendres Volcan.






- Altitude de l'aérodrome : 289 ft


LFYR - Romorantin Pruniers

DERNIER METAR :
  • 271430Z AUTO 31015G31KT 250V350 9999 SCT034 BKN041 BKN048 11/04 Q1005 TEMPO 31020G45KT 4000 RA

METARs EXPIRÉS :
  • 271400Z AUTO 29017G33KT 250V350 9999 SCT039 BKN048 OVC054 12/05 Q1003 TEMPO 31020G45KT 4000 SHRA SCT010 BKN020TCU
  • 271330Z AUTO 30018G35KT 240V340 9999 SCT033 OVC049 13/06 Q1001 TEMPO 31020G45KT 4000 SHRA SCT010 BKN020TCU
  • 271300Z AUTO 28020G34KT 240V330 9999 FEW028 SCT036 BKN047 14/07 Q1000 TEMPO 31020G45KT 4000 SHRA SCT010 BKN020TCU
  • 271230Z AUTO 27015G25KT 220V320 9999 BKN031 BKN038 BKN054 14/09 Q0998 TEMPO 31020G45KT 4000 SHRA SCT010 BKN020TCU
  • 271200Z AUTO 26015G28KT 220V290 9999 BKN025 OVC031 14/10 Q0998 TEMPO 31020G45KT 4000 SHRA SCT010 BKN020TCU

Prévision TAF périmée.



MET'MAP, la Météo Aéronautique d'un coup d'oeil ! - Copyright ORBIFLY Décembre 2007 - Disclaimer

ORBIFLY MET'MAP TEAM :

Programmation & Développement : Alexandra Zaïnal
Sur une idée originale de : Baudouin d'Aumeries
Assistance à la programmation : Marc-Olivier Méhu
Soutien technique & logistique : Manuel Goepfert

Contact : metmap@orbifly.com




SOURCES & CREDITS :

   NOAA